Time;durP1;ratioP1;P1;durP2;ratioP2;P2;SDS_P1;SDS_P2;PMS_P1;PMS_P2;Temp;Humidity;BMP_temperature;BMP_pressure;BME280_temperature;BME280_humidity;BME280_pressure;Samples;Min_cycle;Max_cycle;Signal;HPM_P1;HPM_P2
2022/11/04 00:01:52;;;;;;;0.10;0.10;;;11.80;99.90;;;;;;5079830;28;20078;-70
2022/11/04 00:04:20;;;;;;;0.15;0.15;;;11.80;99.90;;;;;;5088768;28;20047;-70
2022/11/04 00:06:46;;;;;;;0.15;0.15;;;11.80;99.90;;;;;;5084673;28;20119;-70
2022/11/04 00:09:19;;;;;;;0.10;0.10;;;11.80;99.90;;;;;;5081940;28;20040;-71
2022/11/04 00:14:30;;;;;;;0.20;0.20;;;11.80;99.90;;;;;;5101693;28;20053;-70
2022/11/04 00:33:24;;;;;;;0.10;0.10;;;11.70;99.90;;;;;;5069658;28;20209;-71
2022/11/04 00:33:47;;;;;;;0.17;0.17;;;11.70;99.90;;;;;;5073447;28;20538;-70
2022/11/04 00:36:13;;;;;;;0.10;0.10;;;11.70;99.90;;;;;;5078425;28;20044;-71
2022/11/04 00:38:39;;;;;;;0.20;0.20;;;11.70;99.90;;;;;;5074634;28;20115;-70
2022/11/04 00:41:24;;;;;;;0.10;0.10;;;11.90;99.90;;;;;;5073546;28;20118;-71
2022/11/04 00:43:54;;;;;;;0.20;0.20;;;11.70;99.90;;;;;;5076805;28;20128;-71
2022/11/04 00:46:20;;;;;;;0.17;0.17;;;11.70;99.90;;;;;;5081080;28;20037;-71
2022/11/04 00:48:46;;;;;;;0.10;0.10;;;11.70;99.90;;;;;;5080639;28;20492;-73
2022/11/04 00:51:11;;;;;;;0.20;0.20;;;11.70;99.90;;;;;;5086741;28;20044;-71
2022/11/04 00:53:37;;;;;;;0.20;0.20;;;11.70;99.90;;;;;;5084433;28;20072;-71
2022/11/04 00:56:03;;;;;;;0.10;0.10;;;11.70;99.90;;;;;;5078060;28;20492;-71
2022/11/04 00:58:28;;;;;;;0.20;0.20;;;11.60;99.90;;;;;;5076216;28;20043;-71
2022/11/04 01:00:54;;;;;;;0.10;0.10;;;11.60;99.90;;;;;;5084040;28;20037;-72
2022/11/04 01:03:20;;;;;;;0.10;0.10;;;11.50;99.90;;;;;;5078170;28;20045;-71
2022/11/04 01:05:45;;;;;;;0.20;0.20;;;11.50;99.90;;;;;;5071718;28;20036;-71
2022/11/04 01:08:11;;;;;;;0.10;0.10;;;11.50;99.90;;;;;;5076752;28;20063;-71
2022/11/04 01:10:43;;;;;;;0.10;0.10;;;11.50;99.90;;;;;;5074255;28;20036;-71
2022/11/04 01:13:13;;;;;;;0.20;0.20;;;11.40;99.90;;;;;;5076118;28;20056;-71
2022/11/04 01:15:38;;;;;;;0.10;0.10;;;11.40;99.90;;;;;;5079146;28;20170;-71
2022/11/04 01:18:05;;;;;;;0.10;0.10;;;11.40;99.90;;;;;;5074520;28;20119;-71
2022/11/04 01:20:31;;;;;;;0.20;0.20;;;11.30;99.90;;;;;;5080935;28;20131;-71
2022/11/04 01:22:57;;;;;;;0.17;0.17;;;11.30;99.90;;;;;;5119511;27;20063;-71
2022/11/04 01:25:23;;;;;;;0.10;0.10;;;11.30;99.90;;;;;;5090251;28;20040;-71
2022/11/04 01:27:48;;;;;;;0.15;0.15;;;11.30;99.90;;;;;;5079800;28;20495;-71
2022/11/04 01:30:14;;;;;;;0.20;0.20;;;11.20;99.90;;;;;;5082216;28;20056;-71
2022/11/04 01:32:39;;;;;;;0.10;0.10;;;11.20;99.90;;;;;;5083651;28;20045;-71
2022/11/04 01:35:06;;;;;;;0.20;0.20;;;11.20;99.90;;;;;;5076165;28;20044;-71
2022/11/04 01:37:31;;;;;;;0.15;0.15;;;11.20;99.90;;;;;;5077325;28;21776;-71
2022/11/04 01:39:57;;;;;;;0.20;0.20;;;11.20;99.90;;;;;;5080337;28;20071;-71
2022/11/04 01:42:23;;;;;;;0.20;0.20;;;11.10;99.90;;;;;;5090251;28;20080;-71
2022/11/04 01:44:51;;;;;;;0.20;0.20;;;11.10;99.90;;;;;;5083169;28;20131;-71
2022/11/04 01:47:20;;;;;;;0.13;0.13;;;11.10;99.90;;;;;;5083662;28;20115;-70
2022/11/04 01:49:51;;;;;;;0.20;0.20;;;10.90;99.90;;;;;;5077290;28;20047;-71
2022/11/04 01:52:24;;;;;;;;;;;11.00;99.90;;;;;;5075558;28;20078;-69
2022/11/04 01:54:56;;;;;;;0.20;0.20;;;11.10;99.90;;;;;;5082411;28;19952;-71
2022/11/04 01:57:33;;;;;;;0.10;0.10;;;11.00;99.90;;;;;;5078529;28;20044;-70
2022/11/04 02:00:00;;;;;;;0.20;0.20;;;11.00;99.90;;;;;;5109292;27;20138;-70
2022/11/04 02:02:26;;;;;;;0.10;0.10;;;10.90;99.90;;;;;;5089051;28;20043;-71
2022/11/04 02:04:52;;;;;;;0.20;0.20;;;11.00;99.90;;;;;;5082302;28;20111;-71
2022/11/04 02:07:17;;;;;;;0.10;0.10;;;10.90;99.90;;;;;;5075624;28;20036;-71
2022/11/04 02:09:43;;;;;;;0.20;0.20;;;11.10;99.90;;;;;;5085995;28;20098;-73
2022/11/04 02:14:54;;;;;;;0.20;0.20;;;10.90;99.90;;;;;;5078537;28;20048;-71
2022/11/04 02:17:28;;;;;;;0.13;0.13;;;11.00;99.90;;;;;;5086156;28;20032;-71
2022/11/04 02:19:56;;;;;;;0.10;0.10;;;11.00;99.90;;;;;;5083246;28;20541;-71
2022/11/04 02:22:43;;;;;;;0.20;0.20;;;10.90;99.90;;;;;;5089573;28;20036;-71
2022/11/04 02:25:19;;;;;;;0.20;0.20;;;10.90;99.90;;;;;;5069573;28;20075;-71
2022/11/04 02:28:08;;;;;;;0.20;0.20;;;11.10;99.90;;;;;;5068921;28;20056;-71
2022/11/04 02:30:59;;;;;;;0.20;0.20;;;10.90;99.90;;;;;;5087961;28;20407;-71
2022/11/04 02:33:29;;;;;;;;;;;10.90;99.90;;;;;;5075430;28;20060;-70
2022/11/04 02:36:04;;;;;;;0.20;0.20;;;10.90;99.90;;;;;;5072574;28;19920;-71
2022/11/04 02:38:45;;;;;;;0.20;0.20;;;10.90;99.90;;;;;;5088636;28;20044;-70
2022/11/04 02:41:40;;;;;;;0.10;0.10;;;10.90;99.90;;;;;;5087794;28;20036;-71
2022/11/04 02:44:23;;;;;;;0.20;0.20;;;10.90;99.90;;;;;;5084459;28;20059;-71
2022/11/04 02:46:59;;;;;;;0.10;0.10;;;10.90;99.90;;;;;;5071031;28;20068;-71
2022/11/04 02:49:57;;;;;;;0.10;0.10;;;10.90;99.90;;;;;;5081930;28;20712;-71
2022/11/04 02:52:34;;;;;;;0.20;0.20;;;10.90;99.90;;;;;;5089736;28;20040;-70
2022/11/04 02:55:05;;;;;;;0.20;0.20;;;10.80;99.90;;;;;;5067796;28;20077;-71
2022/11/04 02:57:34;;;;;;;0.20;0.20;;;10.80;99.90;;;;;;5077509;28;20036;-70
2022/11/04 03:00:03;;;;;;;0.20;0.20;;;10.80;99.90;;;;;;5077327;28;20056;-70
2022/11/04 03:02:44;;;;;;;0.20;0.20;;;10.80;99.90;;;;;;5081140;28;20044;-70
2022/11/04 03:05:15;;;;;;;0.10;0.10;;;10.80;99.90;;;;;;5096903;28;20130;-70
2022/11/04 03:07:43;;;;;;;0.20;0.20;;;10.80;99.90;;;;;;5084581;28;20098;-70
2022/11/04 03:10:34;;;;;;;0.20;0.20;;;11.00;99.90;;;;;;5085732;28;20047;-69
2022/11/04 03:13:03;;;;;;;;;;;10.70;99.90;;;;;;5086231;28;20441;-71
2022/11/04 03:15:36;;;;;;;0.20;0.20;;;10.70;99.90;;;;;;5082815;28;19946;-70
2022/11/04 03:18:18;;;;;;;0.13;0.13;;;10.70;99.90;;;;;;5075816;28;20044;-70
2022/11/04 03:20:47;;;;;;;0.10;0.10;;;10.70;99.90;;;;;;5082406;28;20473;-70
2022/11/04 03:23:14;;;;;;;0.20;0.20;;;10.80;99.90;;;;;;5074708;28;20094;-70
2022/11/04 03:25:46;;;;;;;0.20;0.20;;;10.70;99.90;;;;;;5070758;28;20091;-70
2022/11/04 03:28:37;;;;;;;0.20;0.20;;;10.70;99.90;;;;;;5067240;28;20086;-70
2022/11/04 03:31:05;;;;;;;0.15;0.15;;;10.90;99.90;;;;;;5102610;27;20055;-69
2022/11/04 03:33:48;;;;;;;0.10;0.10;;;10.80;99.90;;;;;;5077991;28;20439;-70
2022/11/04 03:36:15;;;;;;;0.20;0.20;;;10.80;99.90;;;;;;5082578;28;20475;-70
2022/11/04 03:38:41;;;;;;;0.20;0.20;;;10.80;99.90;;;;;;5070933;28;20045;-70
2022/11/04 03:41:17;;;;;;;0.20;0.20;;;10.80;99.90;;;;;;5086388;28;20048;-72
2022/11/04 03:43:42;;;;;;;0.20;0.20;;;10.80;99.90;;;;;;5081969;28;20119;-71
2022/11/04 03:46:08;;;;;;;0.20;0.20;;;10.70;99.90;;;;;;5077126;28;20131;-70
2022/11/04 03:48:34;;;;;;;0.10;0.10;;;10.80;99.90;;;;;;5082369;28;20054;-71
2022/11/04 03:51:00;;;;;;;0.10;0.10;;;10.70;99.90;;;;;;5070423;28;20373;-71
2022/11/04 03:53:28;;;;;;;0.17;0.17;;;10.80;99.90;;;;;;5073035;28;20046;-71
2022/11/04 03:56:10;;;;;;;0.10;0.10;;;10.90;99.90;;;;;;5069076;28;20036;-71
2022/11/04 03:59:15;;;;;;;0.13;0.13;;;10.80;99.90;;;;;;5082893;28;20101;-71
2022/11/04 04:01:55;;;;;;;0.10;0.10;;;10.80;99.90;;;;;;5079021;28;20127;-70
2022/11/04 04:04:39;;;;;;;0.10;0.10;;;10.80;99.90;;;;;;5075250;28;20052;-71
2022/11/04 04:07:10;;;;;;;0.10;0.10;;;10.80;99.90;;;;;;5075454;28;20051;-71
2022/11/04 04:09:49;;;;;;;0.10;0.10;;;10.80;99.90;;;;;;5081740;28;20040;-70
2022/11/04 04:12:21;;;;;;;0.20;0.20;;;10.80;99.90;;;;;;5079276;28;20081;-70
2022/11/04 04:14:53;;;;;;;0.10;0.10;;;10.80;99.90;;;;;;5085140;28;20139;-71
2022/11/04 04:18:00;;;;;;;0.20;0.20;;;10.80;99.90;;;;;;5073710;28;20107;-71
2022/11/04 04:20:30;;;;;;;0.10;0.10;;;10.80;99.90;;;;;;5020666;28;20057;-71
2022/11/04 04:27:29;;;;;;;0.20;0.20;;;10.80;99.90;;;;;;5094127;28;20110;-71
2022/11/04 04:28:46;;;;;;;0.20;0.20;;;10.70;99.90;;;;;;5076025;28;20052;-71
2022/11/04 04:31:48;;;;;;;0.20;0.20;;;10.70;99.90;;;;;;5086221;28;20548;-71
2022/11/04 04:34:00;;;;;;;0.20;0.20;;;10.70;99.90;;;;;;5086512;28;20060;-71
2022/11/04 04:36:27;;;;;;;0.20;0.20;;;10.70;99.90;;;;;;5070833;28;20087;-71
2022/11/04 04:47:18;;;;;;;0.10;0.10;;;10.60;99.90;;;;;;5076613;28;20052;-71
2022/11/04 04:49:51;;;;;;;0.20;0.20;;;10.60;99.90;;;;;;5087803;28;20044;-71
2022/11/04 04:52:18;;;;;;;0.10;0.10;;;10.50;99.90;;;;;;5089930;28;20561;-71
2022/11/04 04:54:44;;;;;;;0.10;0.10;;;10.80;99.90;;;;;;5075384;28;20058;-71
2022/11/04 04:57:10;;;;;;;0.10;0.10;;;10.50;99.90;;;;;;5069699;28;20102;-71
2022/11/04 04:59:35;;;;;;;0.10;0.10;;;10.40;99.90;;;;;;5079595;28;20043;-71
2022/11/04 05:02:01;;;;;;;0.20;0.20;;;10.40;99.90;;;;;;5083456;28;20137;-71
2022/11/04 05:04:26;;;;;;;0.10;0.10;;;10.30;99.90;;;;;;5075341;28;20472;-71
2022/11/04 05:06:52;;;;;;;0.10;0.10;;;10.40;99.90;;;;;;5104056;27;20064;-71
2022/11/04 05:09:18;;;;;;;0.17;0.17;;;10.30;99.90;;;;;;5087019;28;20052;-71
2022/11/04 05:11:43;;;;;;;0.20;0.20;;;10.20;99.90;;;;;;5092959;28;20036;-71
2022/11/04 05:14:09;;;;;;;0.20;0.20;;;10.20;99.90;;;;;;5105624;27;20060;-71
2022/11/04 05:16:34;;;;;;;0.20;0.20;;;10.20;99.90;;;;;;5078723;28;20028;-71
2022/11/04 05:19:00;;;;;;;0.20;0.20;;;10.20;99.90;;;;;;5080269;28;20079;-71
2022/11/04 05:21:26;;;;;;;0.10;0.10;;;10.20;99.90;;;;;;5075824;28;20044;-71
2022/11/04 05:23:51;;;;;;;0.20;0.20;;;10.10;99.90;;;;;;5095299;28;20036;-71
2022/11/04 05:26:17;;;;;;;0.15;0.15;;;10.10;99.90;;;;;;5090031;28;20047;-71
2022/11/04 05:28:43;;;;;;;0.20;0.20;;;10.10;99.90;;;;;;5089774;28;20063;-71
2022/11/04 05:31:08;;;;;;;0.20;0.20;;;10.10;99.90;;;;;;5077345;28;20051;-71
2022/11/04 05:33:34;;;;;;;0.20;0.20;;;10.10;99.90;;;;;;5078253;28;20032;-71
2022/11/04 05:36:10;;;;;;;0.10;0.10;;;10.00;99.90;;;;;;5075002;28;20521;-71
2022/11/04 05:38:37;;;;;;;0.20;0.20;;;10.00;99.90;;;;;;5075226;28;20052;-71
2022/11/04 05:41:03;;;;;;;0.20;0.20;;;10.00;99.90;;;;;;5083400;28;20043;-71
2022/11/04 05:43:29;;;;;;;0.20;0.20;;;10.00;99.90;;;;;;5070091;28;20028;-72
2022/11/04 05:45:54;;;;;;;0.20;0.20;;;9.90;99.90;;;;;;5073794;28;20036;-71
2022/11/04 05:48:20;;;;;;;0.13;0.13;;;10.00;99.90;;;;;;5072292;28;20036;-72
2022/11/04 05:50:45;;;;;;;0.15;0.15;;;10.00;99.90;;;;;;5086370;28;20048;-71
2022/11/04 05:53:11;;;;;;;0.20;0.20;;;9.90;99.90;;;;;;5084872;28;20043;-71
2022/11/04 05:55:37;;;;;;;0.20;0.20;;;9.80;99.90;;;;;;5085375;28;20071;-70
2022/11/04 05:58:02;;;;;;;0.13;0.13;;;9.80;99.90;;;;;;5079544;28;20033;-71
2022/11/04 06:00:28;;;;;;;0.20;0.20;;;9.80;99.90;;;;;;5067978;28;20048;-71
2022/11/04 06:02:57;;;;;;;0.20;0.20;;;9.80;99.90;;;;;;5071685;28;20051;-71
2022/11/04 06:05:24;;;;;;;0.20;0.20;;;9.90;99.90;;;;;;5089286;28;20134;-71
2022/11/04 06:07:50;;;;;;;0.20;0.20;;;9.80;99.90;;;;;;5086216;28;20084;-71
2022/11/04 06:10:15;;;;;;;0.20;0.20;;;9.70;99.90;;;;;;5088131;28;20068;-71
2022/11/04 06:12:44;;;;;;;0.20;0.20;;;9.70;99.90;;;;;;5080678;28;20064;-71
2022/11/04 06:15:09;;;;;;;0.20;0.20;;;9.70;99.90;;;;;;5078229;28;20048;-71
2022/11/04 06:17:35;;;;;;;0.20;0.20;;;9.70;99.90;;;;;;5073565;28;20458;-71
2022/11/04 06:20:01;;;;;;;0.17;0.17;;;9.70;99.90;;;;;;5076502;28;20044;-71
2022/11/04 06:22:27;;;;;;;0.20;0.20;;;9.90;99.90;;;;;;5075731;28;20434;-71
2022/11/04 06:24:53;;;;;;;0.10;0.10;;;9.70;99.90;;;;;;5077597;28;20052;-71
2022/11/04 06:27:19;;;;;;;0.20;0.20;;;9.70;99.90;;;;;;5078979;28;20044;-70
2022/11/04 06:29:46;;;;;;;0.20;0.20;;;9.70;99.90;;;;;;5072840;28;20048;-71
2022/11/04 06:32:16;;;;;;;0.10;0.10;;;9.70;99.90;;;;;;5073430;28;20059;-71
2022/11/04 06:34:43;;;;;;;0.20;0.20;;;9.70;99.90;;;;;;5077776;28;20108;-71
2022/11/04 06:37:09;;;;;;;0.10;0.10;;;9.70;99.90;;;;;;5085781;28;20038;-71
2022/11/04 06:39:36;;;;;;;0.10;0.10;;;9.70;99.90;;;;;;5081277;28;20110;-71
2022/11/04 06:42:02;;;;;;;0.20;0.20;;;9.60;99.90;;;;;;5085693;28;20071;-71
2022/11/04 06:44:28;;;;;;;0.10;0.10;;;9.60;99.90;;;;;;5094988;28;20491;-71
2022/11/04 06:46:53;;;;;;;0.20;0.20;;;9.60;99.90;;;;;;5095685;28;20044;-71
2022/11/04 06:49:21;;;;;;;0.10;0.10;;;9.70;99.90;;;;;;5078656;28;20491;-71
2022/11/04 06:51:47;;;;;;;0.20;0.20;;;9.60;99.90;;;;;;5089302;28;20048;-72
2022/11/04 06:54:14;;;;;;;0.20;0.20;;;9.60;99.90;;;;;;5079853;28;20052;-71
2022/11/04 06:56:40;;;;;;;0.20;0.20;;;9.60;99.90;;;;;;5068621;28;20419;-71
2022/11/04 06:59:06;;;;;;;0.20;0.20;;;9.60;99.90;;;;;;5084797;28;20044;-72
2022/11/04 07:01:34;;;;;;;0.10;0.10;;;9.60;99.90;;;;;;5081394;28;20050;-72
2022/11/04 07:04:01;;;;;;;0.20;0.20;;;9.60;99.90;;;;;;5078849;28;20142;-72
2022/11/04 07:06:28;;;;;;;0.20;0.20;;;9.60;99.90;;;;;;5080700;28;20519;-71
2022/11/04 07:08:57;;;;;;;0.20;0.20;;;9.60;99.90;;;;;;5082167;28;20047;-71
2022/11/04 07:11:25;;;;;;;0.20;0.20;;;9.60;99.90;;;;;;5082531;28;20048;-71
2022/11/04 07:13:51;;;;;;;0.20;0.20;;;10.00;99.90;;;;;;5073582;28;20211;-70
2022/11/04 07:16:17;;;;;;;0.20;0.20;;;9.60;99.90;;;;;;5071722;28;20867;-71
2022/11/04 07:18:44;;;;;;;0.20;0.20;;;9.60;99.90;;;;;;5070690;28;20037;-72
2022/11/04 07:21:10;;;;;;;0.20;0.20;;;9.60;99.90;;;;;;5075954;28;20052;-71
2022/11/04 07:23:35;;;;;;;0.10;0.10;;;9.60;99.90;;;;;;5070098;28;20043;-72
2022/11/04 07:26:06;;;;;;;0.20;0.20;;;9.70;99.90;;;;;;5074176;28;20097;-71
2022/11/04 07:28:33;;;;;;;0.20;0.20;;;9.80;99.90;;;;;;5085410;28;20056;-71
2022/11/04 07:31:00;;;;;;;0.10;0.10;;;9.70;99.90;;;;;;5071513;28;20044;-71
2022/11/04 07:33:26;;;;;;;0.20;0.20;;;9.80;99.90;;;;;;5102589;27;20458;-72
2022/11/04 07:35:53;;;;;;;0.20;0.20;;;9.60;99.90;;;;;;5085398;28;20517;-71
2022/11/04 07:38:22;;;;;;;0.20;0.20;;;9.60;99.90;;;;;;5101143;28;20128;-71
2022/11/04 07:40:48;;;;;;;0.20;0.20;;;9.70;99.90;;;;;;5083614;28;20032;-73
2022/11/04 07:43:14;;;;;;;0.15;0.15;;;9.60;99.90;;;;;;5074661;28;20118;-72
2022/11/04 07:45:41;;;;;;;0.17;0.17;;;9.60;99.90;;;;;;5076454;28;20036;-71
2022/11/04 07:48:07;;;;;;;0.20;0.20;;;9.60;99.90;;;;;;5077380;28;20049;-72
2022/11/04 07:50:42;;;;;;;0.20;0.20;;;9.60;99.90;;;;;;5073185;28;20044;-72
2022/11/04 07:53:07;;;;;;;0.10;0.10;;;9.70;99.90;;;;;;5072878;28;20036;-71
2022/11/04 07:55:35;;;;;;;0.20;0.20;;;9.70;99.90;;;;;;5074206;28;20048;-71
2022/11/04 07:58:01;;;;;;;0.20;0.20;;;9.70;99.90;;;;;;5069930;28;20044;-72
2022/11/04 08:00:27;;;;;;;0.17;0.17;;;9.60;99.90;;;;;;5076679;28;20074;-71
2022/11/04 08:02:53;;;;;;;0.20;0.20;;;9.80;99.90;;;;;;5089373;28;20036;-71
2022/11/04 08:05:18;;;;;;;0.20;0.20;;;9.80;99.90;;;;;;5088631;28;20032;-71
2022/11/04 08:07:44;;;;;;;0.20;0.20;;;9.80;99.90;;;;;;5085207;28;20082;-71
2022/11/04 08:10:10;;;;;;;0.10;0.10;;;9.80;99.90;;;;;;5078401;28;20040;-72
2022/11/04 08:12:37;;;;;;;0.20;0.20;;;9.90;99.90;;;;;;5082964;28;20127;-71
2022/11/04 08:15:04;;;;;;;0.20;0.20;;;9.80;99.90;;;;;;5073837;28;20694;-71
2022/11/04 08:17:29;;;;;;;0.17;0.17;;;9.90;99.90;;;;;;5074154;28;20053;-71
2022/11/04 08:19:55;;;;;;;0.15;0.15;;;9.90;99.90;;;;;;5075395;28;20123;-73
2022/11/04 08:22:20;;;;;;;0.10;0.10;;;9.90;99.90;;;;;;5073269;28;20033;-71
2022/11/04 08:24:46;;;;;;;0.17;0.17;;;9.90;99.90;;;;;;5082709;28;20177;-71
2022/11/04 08:27:12;;;;;;;0.20;0.20;;;10.00;99.90;;;;;;5092339;28;20050;-71
2022/11/04 08:29:38;;;;;;;0.20;0.20;;;10.00;99.90;;;;;;5095615;28;20044;-71
2022/11/04 08:32:05;;;;;;;0.20;0.20;;;10.00;99.90;;;;;;5080734;28;20066;-70
2022/11/04 08:34:31;;;;;;;0.13;0.13;;;10.10;99.90;;;;;;5074238;28;20123;-71
2022/11/04 08:36:57;;;;;;;0.10;0.10;;;10.00;99.90;;;;;;5079775;28;20044;-70
2022/11/04 08:39:23;;;;;;;0.20;0.20;;;10.10;99.90;;;;;;5076615;28;20117;-71
2022/11/04 08:41:49;;;;;;;0.20;0.20;;;10.10;99.90;;;;;;5066904;28;20060;-71
2022/11/04 08:44:16;;;;;;;0.20;0.20;;;10.10;99.90;;;;;;5069545;28;20047;-71
2022/11/04 08:46:44;;;;;;;0.20;0.20;;;10.20;99.90;;;;;;5077811;28;20151;-71
2022/11/04 08:49:10;;;;;;;0.10;0.10;;;10.20;99.90;;;;;;5101998;28;20133;-71
2022/11/04 08:51:39;;;;;;;0.20;0.20;;;10.30;99.90;;;;;;5080010;28;20050;-71
2022/11/04 08:54:05;;;;;;;0.20;0.20;;;10.30;99.90;;;;;;5083520;28;20044;-71
2022/11/04 08:56:35;;;;;;;0.10;0.10;;;10.40;99.90;;;;;;5091750;28;20032;-71
2022/11/04 08:59:01;;;;;;;0.15;0.15;;;10.40;99.90;;;;;;5090951;28;20117;-71
2022/11/04 09:01:28;;;;;;;0.20;0.20;;;10.40;99.90;;;;;;5080686;28;20127;-71
2022/11/04 09:03:54;;;;;;;0.20;0.20;;;10.50;99.90;;;;;;5071250;28;20049;-71
2022/11/04 09:06:29;;;;;;;0.15;0.15;;;10.50;99.90;;;;;;5072467;28;20037;-70
2022/11/04 09:09:00;;;;;;;0.10;0.10;;;10.50;99.90;;;;;;5071632;28;20530;-71
2022/11/04 09:11:26;;;;;;;0.10;0.10;;;10.60;99.90;;;;;;5071107;28;20057;-71
2022/11/04 09:13:52;;;;;;;0.15;0.15;;;10.60;99.90;;;;;;5071054;28;20040;-71
2022/11/04 09:16:18;;;;;;;0.20;0.20;;;10.70;99.90;;;;;;5071962;28;20049;-71
2022/11/04 09:18:44;;;;;;;0.10;0.10;;;10.70;99.90;;;;;;5072234;28;20044;-71
2022/11/04 09:21:10;;;;;;;0.20;0.20;;;10.80;99.90;;;;;;5070701;28;20102;-71
2022/11/04 09:23:36;;;;;;;0.10;0.10;;;10.80;99.90;;;;;;5074339;28;20127;-70
2022/11/04 09:26:08;;;;;;;0.20;0.20;;;10.90;99.90;;;;;;5090376;28;20471;-71
2022/11/04 09:28:34;;;;;;;0.20;0.20;;;10.90;99.90;;;;;;5090387;28;20055;-70
2022/11/04 09:31:04;;;;;;;0.20;0.20;;;11.00;99.90;;;;;;5086975;28;20052;-71
2022/11/04 09:33:29;;;;;;;0.20;0.20;;;11.00;99.90;;;;;;5086167;28;20090;-70
2022/11/04 09:35:56;;;;;;;0.20;0.20;;;11.10;99.90;;;;;;5087321;28;20048;-71
2022/11/04 09:38:22;;;;;;;0.10;0.10;;;11.10;99.90;;;;;;5091132;28;20040;-71
2022/11/04 09:40:49;;;;;;;0.20;0.20;;;11.30;99.90;;;;;;5090511;28;20396;-70
2022/11/04 09:43:39;;;;;;;0.17;0.17;;;11.30;99.90;;;;;;5090689;28;20068;-72
2022/11/04 09:46:08;;;;;;;0.10;0.10;;;11.40;99.90;;;;;;5072732;28;20056;-71
2022/11/04 09:48:47;;;;;;;0.20;0.20;;;11.60;99.90;;;;;;5082525;28;20527;-71
2022/11/04 09:51:16;;;;;;;0.20;0.20;;;11.60;99.90;;;;;;5085334;28;20048;-71
2022/11/04 09:53:45;;;;;;;0.10;0.10;;;11.70;99.90;;;;;;5086621;28;20051;-70
2022/11/04 09:56:34;;;;;;;0.10;0.10;;;11.80;99.90;;;;;;5090658;28;20037;-71
2022/11/04 09:59:02;;;;;;;0.20;0.20;;;12.00;99.90;;;;;;5088232;28;20507;-70
2022/11/04 10:01:39;;;;;;;0.20;0.20;;;12.20;99.90;;;;;;5092832;28;20486;-70
2022/11/04 10:04:24;;;;;;;0.20;0.20;;;12.10;99.90;;;;;;5092208;28;20343;-71
2022/11/04 10:07:10;;;;;;;0.20;0.20;;;12.30;99.90;;;;;;5087388;28;20478;-71
2022/11/04 10:09:41;;;;;;;0.20;0.20;;;12.40;99.90;;;;;;5086890;28;20384;-71
2022/11/04 10:12:20;;;;;;;0.20;0.20;;;12.50;99.90;;;;;;5089660;28;20052;-71
2022/11/04 10:15:17;;;;;;;0.20;0.20;;;12.50;99.90;;;;;;5089376;28;20036;-70
2022/11/04 10:18:37;;;;;;;0.13;0.13;;;12.60;99.90;;;;;;5088373;28;20109;-71
2022/11/04 10:21:19;;;;;;;0.10;0.10;;;12.60;99.90;;;;;;5047169;28;20053;-72
2022/11/04 10:24:04;;;;;;;0.20;0.20;;;12.60;99.90;;;;;;5083400;28;20497;-71
2022/11/04 10:26:59;;;;;;;0.17;0.17;;;12.70;99.90;;;;;;5079896;28;20033;-71
2022/11/04 10:29:28;;;;;;;0.10;0.10;;;12.80;99.90;;;;;;5088285;28;20111;-70
2022/11/04 10:31:56;;;;;;;0.20;0.20;;;12.90;99.90;;;;;;5111271;27;20478;-71
2022/11/04 10:34:31;;;;;;;0.20;0.20;;;12.90;99.90;;;;;;5099588;28;20109;-70
2022/11/04 10:36:57;;;;;;;0.20;0.20;;;12.90;99.90;;;;;;5069638;28;20500;-71
2022/11/04 10:39:29;;;;;;;0.20;0.20;;;12.90;99.90;;;;;;5081521;28;20042;-70
2022/11/04 10:41:57;;;;;;;0.20;0.20;;;13.40;99.90;;;;;;5086427;28;20085;-70
2022/11/04 10:44:36;;;;;;;0.20;0.20;;;13.00;99.90;;;;;;5086726;28;20395;-72
2022/11/04 10:47:10;;;;;;;0.15;0.15;;;13.10;99.90;;;;;;5088815;28;20051;-70
2022/11/04 10:50:03;;;;;;;0.20;0.20;;;13.30;99.90;;;;;;5080747;28;20040;-70
2022/11/04 10:52:33;;;;;;;0.20;0.20;;;13.50;99.90;;;;;;5081927;28;20048;-70
2022/11/04 10:54:59;;;;;;;0.20;0.20;;;13.60;99.90;;;;;;5094132;28;20051;-70
2022/11/04 10:57:25;;;;;;;0.20;0.20;;;13.80;99.90;;;;;;5091166;28;20539;-71
2022/11/04 10:59:57;;;;;;;0.20;0.20;;;13.80;99.90;;;;;;5093309;28;20052;-71
2022/11/04 11:02:43;;;;;;;0.20;0.20;;;13.90;99.90;;;;;;5071387;28;20529;-71
2022/11/04 11:05:29;;;;;;;0.20;0.20;;;14.00;99.90;;;;;;5067444;28;20056;-71
2022/11/04 11:08:00;;;;;;;0.20;0.20;;;14.10;99.90;;;;;;5070467;28;20404;-71
2022/11/04 11:10:28;;;;;;;0.20;0.20;;;14.10;99.90;;;;;;5079580;28;20493;-71
2022/11/04 11:13:06;;;;;;;0.10;0.10;;;14.10;99.90;;;;;;5079988;28;20074;-71
2022/11/04 11:15:34;;;;;;;0.20;0.20;;;14.10;99.90;;;;;;5088952;28;20054;-71
2022/11/04 11:18:13;;;;;;;0.20;0.20;;;14.20;99.90;;;;;;5081507;28;20037;-71
2022/11/04 11:20:40;;;;;;;0.10;0.10;;;14.30;99.90;;;;;;5070256;28;20083;-72
2022/11/04 11:23:31;;;;;;;0.10;0.10;;;14.30;99.90;;;;;;5070148;28;20045;-71
2022/11/04 11:25:59;;;;;;;0.20;0.20;;;14.30;99.90;;;;;;5087121;28;20043;-70
2022/11/04 11:28:25;;;;;;;0.20;0.20;;;14.20;99.90;;;;;;5074529;28;20053;-70
2022/11/04 11:30:56;;;;;;;0.20;0.20;;;14.10;99.90;;;;;;5087001;28;20044;-70
2022/11/04 11:33:28;;;;;;;0.20;0.20;;;14.10;99.90;;;;;;5085638;28;20037;-70
2022/11/04 11:36:03;;;;;;;0.10;0.10;;;14.00;99.90;;;;;;5079080;28;20133;-71
2022/11/04 11:38:32;;;;;;;0.10;0.10;;;13.90;99.90;;;;;;5067339;28;20458;-71
2022/11/04 11:41:11;;;;;;;0.10;0.10;;;13.80;99.90;;;;;;5088677;28;20119;-71
2022/11/04 11:43:44;;;;;;;0.13;0.13;;;13.70;99.90;;;;;;5076413;28;20048;-72
2022/11/04 11:46:11;;;;;;;0.20;0.20;;;13.60;99.90;;;;;;5085633;28;20036;-70
2022/11/04 11:48:42;;;;;;;0.20;0.20;;;13.50;99.90;;;;;;5084334;28;20042;-70
2022/11/04 11:51:14;;;;;;;0.10;0.10;;;13.40;99.90;;;;;;5078241;28;20395;-73
2022/11/04 11:53:57;;;;;;;0.10;0.10;;;13.30;99.90;;;;;;5075673;28;20106;-72
2022/11/04 11:56:25;;;;;;;0.20;0.20;;;13.10;99.90;;;;;;5076877;28;20548;-70
2022/11/04 11:59:06;;;;;;;0.13;0.13;;;13.00;99.90;;;;;;5068451;28;20044;-71
2022/11/04 12:01:45;;;;;;;0.10;0.10;;;12.90;99.90;;;;;;5068629;28;20044;-71
2022/11/04 12:04:12;;;;;;;0.20;0.20;;;12.80;99.90;;;;;;5070255;28;20045;-71
2022/11/04 12:07:28;;;;;;;0.10;0.10;;;12.60;99.90;;;;;;5089802;28;20086;-71
2022/11/04 12:10:15;;;;;;;0.20;0.20;;;12.40;99.90;;;;;;5056506;28;20355;-71
2022/11/04 12:12:55;;;;;;;0.20;0.20;;;12.30;99.90;;;;;;5084405;28;20043;-71
2022/11/04 12:15:58;;;;;;;0.10;0.10;;;12.20;99.90;;;;;;5075480;28;20453;-71
2022/11/04 12:19:14;;;;;;;0.10;0.10;;;12.30;99.90;;;;;;5068525;28;20048;-71
2022/11/04 12:21:53;;;;;;;0.20;0.20;;;12.40;99.90;;;;;;5050695;28;20084;-71
2022/11/04 12:24:38;;;;;;;0.10;0.10;;;12.40;99.90;;;;;;5069500;28;20044;-72
2022/11/04 12:27:31;;;;;;;0.20;0.20;;;12.40;99.90;;;;;;5087878;28;20094;-71
2022/11/04 12:30:18;;;;;;;0.20;0.20;;;12.40;99.90;;;;;;5084970;28;20071;-71
2022/11/04 12:32:58;;;;;;;0.20;0.20;;;12.40;99.90;;;;;;5092006;28;20395;-72
2022/11/04 12:35:31;;;;;;;0.20;0.20;;;12.30;99.90;;;;;;5092179;28;20407;-71
2022/11/04 12:38:22;;;;;;;0.10;0.10;;;12.40;99.90;;;;;;5085442;28;20686;-71
2022/11/04 12:41:34;;;;;;;0.20;0.20;;;12.50;99.90;;;;;;5082792;28;20068;-72
2022/11/04 12:44:18;;;;;;;0.20;0.20;;;13.20;99.90;;;;;;5072257;28;20041;-72
2022/11/04 12:47:19;;;;;;;0.10;0.10;;;13.40;99.90;;;;;;5072043;28;20135;-71
2022/11/04 12:50:16;;;;;;;0.15;0.15;;;13.40;99.90;;;;;;5058199;28;20049;-71
2022/11/04 12:53:11;;;;;;;0.20;0.20;;;13.30;99.90;;;;;;5081827;28;20040;-71
2022/11/04 12:55:54;;;;;;;0.17;0.17;;;13.20;99.90;;;;;;5096545;28;20058;-71
2022/11/04 12:58:31;;;;;;;0.20;0.20;;;13.10;99.90;;;;;;5100826;28;20063;-71
2022/11/04 13:01:09;;;;;;;0.20;0.20;;;13.00;99.90;;;;;;5087803;28;20040;-70
2022/11/04 13:03:53;;;;;;;0.10;0.10;;;13.00;99.90;;;;;;5089240;28;20037;-71
2022/11/04 13:06:27;;;;;;;0.20;0.20;;;13.00;99.90;;;;;;5090367;28;20109;-71
2022/11/04 13:09:08;;;;;;;0.20;0.20;;;13.30;99.90;;;;;;5090680;28;20389;-71
2022/11/04 13:11:49;;;;;;;0.20;0.20;;;13.70;99.90;;;;;;5091909;28;20036;-71
2022/11/04 13:14:28;;;;;;;0.20;0.20;;;14.00;99.90;;;;;;5088566;28;20119;-71
2022/11/04 13:16:58;;;;;;;0.20;0.20;;;14.10;99.90;;;;;;5088961;28;20051;-71
2022/11/04 13:19:44;;;;;;;0.20;0.20;;;14.10;99.90;;;;;;5077550;28;20048;-71
2022/11/04 13:22:18;;;;;;;0.15;0.15;;;14.10;99.90;;;;;;5070162;28;20416;-71
2022/11/04 13:25:29;;;;;;;0.10;0.10;;;14.10;99.90;;;;;;5072309;28;20040;-71
2022/11/04 13:27:57;;;;;;;0.10;0.10;;;14.20;99.90;;;;;;5065958;28;20061;-71
2022/11/04 13:30:28;;;;;;;0.20;0.20;;;14.10;99.90;;;;;;5071492;28;20518;-71
2022/11/04 13:33:21;;;;;;;0.10;0.10;;;14.10;99.90;;;;;;5078268;28;20608;-71
2022/11/04 13:35:57;;;;;;;0.10;0.10;;;14.00;99.90;;;;;;5086988;28;20047;-71
2022/11/04 13:38:40;;;;;;;0.13;0.13;;;13.90;99.90;;;;;;5081460;28;20044;-71
2022/11/04 13:41:15;;;;;;;0.20;0.20;;;13.90;99.90;;;;;;5089064;28;20447;-71
2022/11/04 13:43:50;;;;;;;0.10;0.10;;;13.70;99.90;;;;;;5081812;28;20036;-71
2022/11/04 13:46:18;;;;;;;0.20;0.20;;;13.70;99.90;;;;;;5085182;28;20047;-71
2022/11/04 13:48:57;;;;;;;0.20;0.20;;;13.70;99.90;;;;;;5088025;28;20563;-71